createdAt,value
2019-05-15T00:00:25.795Z,99.90
2019-05-15T00:02:58.832Z,99.90
2019-05-15T00:05:29.507Z,99.90
2019-05-15T00:08:00.534Z,99.90
2019-05-15T00:10:31.650Z,99.90
2019-05-15T00:13:04.547Z,99.90
2019-05-15T00:15:35.718Z,99.90
2019-05-15T00:18:08.861Z,99.90
2019-05-15T00:20:40.412Z,99.90
2019-05-15T00:23:11.543Z,99.90
2019-05-15T00:25:42.585Z,99.90
2019-05-15T00:28:14.032Z,99.90
2019-05-15T00:30:45.162Z,99.90
2019-05-15T00:33:16.308Z,99.90
2019-05-15T00:35:48.559Z,99.90
2019-05-15T00:38:20.101Z,99.90
2019-05-15T00:40:51.126Z,99.90
2019-05-15T00:43:22.564Z,99.90
2019-05-15T00:45:53.936Z,99.90
2019-05-15T00:48:25.024Z,99.90
2019-05-15T00:50:55.986Z,99.90
2019-05-15T00:53:28.313Z,99.90
2019-05-15T00:55:59.321Z,99.90
2019-05-15T00:58:30.314Z,99.90
2019-05-15T01:01:01.596Z,99.90
2019-05-15T01:03:32.597Z,99.90
2019-05-15T01:06:03.602Z,99.90
2019-05-15T01:08:34.542Z,99.90
2019-05-15T01:11:05.557Z,99.90
2019-05-15T01:13:38.617Z,99.90
2019-05-15T01:16:09.408Z,99.90
2019-05-15T01:18:40.723Z,99.90
2019-05-15T01:21:12.366Z,99.90
2019-05-15T01:23:43.316Z,99.90
2019-05-15T01:26:14.614Z,99.90
2019-05-15T01:28:45.667Z,99.90
2019-05-15T01:31:18.905Z,99.90
2019-05-15T01:33:49.338Z,99.90
2019-05-15T01:36:20.338Z,99.90
2019-05-15T01:38:51.335Z,99.90
2019-05-15T01:41:22.908Z,99.90
2019-05-15T01:43:53.925Z,99.90
2019-05-15T01:46:24.993Z,99.90
2019-05-15T01:48:58.401Z,99.90
2019-05-15T01:51:28.728Z,99.90
2019-05-15T01:53:59.743Z,99.90
2019-05-15T01:56:30.701Z,99.90
2019-05-15T01:59:02.405Z,99.90
2019-05-15T02:01:33.897Z,99.90
2019-05-15T02:04:04.909Z,99.90
2019-05-15T02:06:35.904Z,99.90
2019-05-15T02:09:08.783Z,99.90
2019-05-15T02:11:39.754Z,99.90
2019-05-15T02:14:10.712Z,99.90
2019-05-15T02:16:41.787Z,99.90
2019-05-15T02:19:12.725Z,99.90
2019-05-15T02:21:44.084Z,99.90
2019-05-15T02:24:15.160Z,99.90
2019-05-15T02:26:48.246Z,99.90
2019-05-15T02:29:24.841Z,99.90
2019-05-15T02:31:53.039Z,99.90
2019-05-15T02:34:25.024Z,99.90
2019-05-15T02:36:59.852Z,99.90
2019-05-15T02:39:29.305Z,99.90
2019-05-15T02:42:00.800Z,99.90
2019-05-15T02:44:32.870Z,99.90
2019-05-15T02:47:03.872Z,99.90
2019-05-15T02:49:35.085Z,99.90
2019-05-15T02:52:09.589Z,99.90
2019-05-15T02:54:39.938Z,99.90
2019-05-15T02:57:11.282Z,99.90
2019-05-15T02:59:43.283Z,99.90
2019-05-15T03:02:14.682Z,99.90
2019-05-15T03:04:48.371Z,99.90
2019-05-15T03:07:19.239Z,99.90
2019-05-15T03:09:50.920Z,99.90
2019-05-15T03:12:22.325Z,99.90
2019-05-15T03:14:53.301Z,99.90
2019-05-15T03:17:24.492Z,99.90
2019-05-15T03:19:58.902Z,99.90
2019-05-15T03:22:29.448Z,99.90
2019-05-15T03:25:01.619Z,99.90
2019-05-15T03:27:34.884Z,99.90
2019-05-15T03:30:12.297Z,99.90
2019-05-15T03:32:52.350Z,99.90
2019-05-15T03:35:15.479Z,99.90
2019-05-15T03:37:49.274Z,99.90
2019-05-15T03:40:19.477Z,99.90
2019-05-15T03:42:50.692Z,99.90
2019-05-15T03:45:21.664Z,99.90
2019-05-15T03:47:52.786Z,99.90
2019-05-15T03:50:23.779Z,99.90
2019-05-15T03:52:54.798Z,99.90
2019-05-15T03:55:29.363Z,99.90
2019-05-15T03:57:59.292Z,99.90
2019-05-15T04:00:30.439Z,99.90
2019-05-15T04:03:01.833Z,99.90
2019-05-15T04:05:32.785Z,99.90
2019-05-15T04:08:04.438Z,99.90
2019-05-15T04:10:35.398Z,99.90
2019-05-15T04:13:09.253Z,99.90
2019-05-15T04:15:40.063Z,99.90
2019-05-15T04:18:11.204Z,99.90
2019-05-15T04:20:42.179Z,99.90
2019-05-15T04:23:19.062Z,99.90
2019-05-15T04:25:53.021Z,99.90
2019-05-15T04:28:25.302Z,99.90
2019-05-15T04:30:59.376Z,99.90
2019-05-15T04:33:29.657Z,99.90
2019-05-15T04:36:00.891Z,99.90
2019-05-15T04:38:34.873Z,99.90
2019-05-15T04:41:09.256Z,99.90
2019-05-15T04:43:44.544Z,99.90
2019-05-15T04:46:11.801Z,99.90
2019-05-15T04:48:43.144Z,99.90
2019-05-15T04:51:14.463Z,99.90
2019-05-15T04:53:45.510Z,99.90
2019-05-15T04:56:19.058Z,99.90
2019-05-15T04:58:50.708Z,99.90
2019-05-15T05:01:22.103Z,99.90
2019-05-15T05:03:53.739Z,99.90
2019-05-15T05:06:25.241Z,99.90
2019-05-15T05:08:59.446Z,99.90
2019-05-15T05:11:29.484Z,99.90
2019-05-15T05:14:00.484Z,99.90
2019-05-15T05:16:31.450Z,99.90
2019-05-15T05:19:02.751Z,99.90
2019-05-15T05:21:33.814Z,99.90
2019-05-15T05:24:05.028Z,99.90
2019-05-15T05:26:38.301Z,99.90
2019-05-15T05:29:08.738Z,99.90
2019-05-15T05:31:40.732Z,99.90
2019-05-15T05:34:11.748Z,99.90
2019-05-15T05:36:42.758Z,99.90
2019-05-15T05:39:16.966Z,99.90
2019-05-15T05:41:48.705Z,99.90
2019-05-15T05:44:31.598Z,99.90
2019-05-15T05:47:02.948Z,99.90
2019-05-15T05:49:37.998Z,99.90
2019-05-15T05:52:14.979Z,99.90
2019-05-15T05:54:49.313Z,99.90
2019-05-15T05:57:24.128Z,99.90
2019-05-15T05:59:55.379Z,99.90
2019-05-15T06:02:43.516Z,99.90
2019-05-15T06:05:02.910Z,99.90
2019-05-15T06:07:35.691Z,99.90
2019-05-15T06:10:09.165Z,99.90
2019-05-15T06:12:42.371Z,99.90
2019-05-15T06:15:13.867Z,99.90
2019-05-15T06:17:45.297Z,99.90
2019-05-15T06:20:18.545Z,99.90
2019-05-15T06:22:49.642Z,99.90
2019-05-15T06:25:20.699Z,99.90
2019-05-15T06:27:51.975Z,99.90
2019-05-15T06:30:30.671Z,99.90
2019-05-15T06:33:09.153Z,99.90
2019-05-15T06:35:35.262Z,99.90
2019-05-15T06:38:08.405Z,99.90
2019-05-15T06:40:39.605Z,99.90
2019-05-15T06:43:10.796Z,99.90
2019-05-15T06:45:41.813Z,99.90
2019-05-15T06:48:13.213Z,99.90
2019-05-15T06:50:45.225Z,99.90
2019-05-15T06:53:18.796Z,99.90
2019-05-15T06:55:50.083Z,99.90
2019-05-15T06:58:21.505Z,99.90
2019-05-15T07:00:52.758Z,99.90
2019-05-15T07:03:25.847Z,99.90
2019-05-15T07:05:59.722Z,99.90
2019-05-15T07:08:30.223Z,99.90
2019-05-15T07:11:01.157Z,99.90
2019-05-15T07:13:32.386Z,99.90
2019-05-15T07:16:03.406Z,99.90
2019-05-15T07:18:34.433Z,99.90
2019-05-15T07:21:05.471Z,99.90
2019-05-15T07:23:38.684Z,99.90
2019-05-15T07:26:09.613Z,99.90
2019-05-15T07:28:41.157Z,99.90
2019-05-15T07:31:12.362Z,99.90
2019-05-15T07:33:44.103Z,99.90
2019-05-15T07:36:15.923Z,99.90
2019-05-15T07:38:48.565Z,99.90
2019-05-15T07:41:19.767Z,99.90
2019-05-15T07:43:50.765Z,99.90
2019-05-15T07:46:22.006Z,99.90
2019-05-15T07:48:53.794Z,99.90
2019-05-15T07:51:25.097Z,99.90
2019-05-15T07:53:58.332Z,99.90
2019-05-15T07:56:29.064Z,99.90
2019-05-15T07:59:00.452Z,99.90
2019-05-15T08:01:31.995Z,99.90
2019-05-15T08:04:22.649Z,99.90
2019-05-15T08:06:38.574Z,99.90
2019-05-15T08:09:08.622Z,99.90
2019-05-15T08:11:40.094Z,99.90
2019-05-15T08:14:11.177Z,99.90
2019-05-15T08:16:42.400Z,99.90
2019-05-15T08:19:13.416Z,99.90
2019-05-15T08:21:44.635Z,99.90
2019-05-15T08:24:18.689Z,99.90
2019-05-15T08:26:49.343Z,99.90
2019-05-15T08:29:21.831Z,99.90
2019-05-15T08:31:52.992Z,99.90
2019-05-15T08:34:24.320Z,99.90
2019-05-15T08:36:58.385Z,99.90
2019-05-15T08:39:29.501Z,99.90
2019-05-15T08:42:00.425Z,99.90
2019-05-15T08:44:31.368Z,99.90
2019-05-15T08:47:02.445Z,99.80
2019-05-15T08:49:33.446Z,99.90
2019-05-15T08:52:07.811Z,99.00
2019-05-15T08:54:38.380Z,97.60
2019-05-15T08:57:09.706Z,96.80
2019-05-15T08:59:41.087Z,96.40
2019-05-15T09:02:12.432Z,97.20
2019-05-15T09:04:43.372Z,99.60
2019-05-15T09:07:14.399Z,98.80
2019-05-15T09:09:45.823Z,97.60
2019-05-15T09:12:18.906Z,98.30
2019-05-15T09:14:50.056Z,99.10
2019-05-15T09:17:21.050Z,97.80
2019-05-15T09:19:52.142Z,96.90
2019-05-15T09:22:23.096Z,97.60
2019-05-15T09:24:54.107Z,98.10
2019-05-15T09:27:25.122Z,98.50
2019-05-15T09:29:59.197Z,97.70
2019-05-15T09:32:30.004Z,96.90
2019-05-15T09:35:01.415Z,97.90
2019-05-15T09:37:33.843Z,96.90
2019-05-15T09:50:08.374Z,96.70
2019-05-15T09:52:39.436Z,96.10
2019-05-15T09:55:10.914Z,95.90
2019-05-15T09:57:42.269Z,95.20
2019-05-15T10:00:14.206Z,95.70
2019-05-15T10:02:45.133Z,95.60
2019-05-15T10:05:18.496Z,96.50
2019-05-15T10:07:49.328Z,97.10
2019-05-15T10:10:21.231Z,96.60
2019-05-15T10:12:53.921Z,96.00
2019-05-15T10:15:24.929Z,94.40
2019-05-15T10:17:59.515Z,94.50
2019-05-15T10:20:29.156Z,94.00
2019-05-15T10:23:00.553Z,95.70
2019-05-15T10:25:31.585Z,96.00
2019-05-15T10:28:04.096Z,92.30
2019-05-15T10:30:36.201Z,93.00
2019-05-15T10:33:08.565Z,92.30
2019-05-15T10:35:39.691Z,93.00
2019-05-15T10:38:11.083Z,91.70
2019-05-15T10:40:58.483Z,93.20
2019-05-15T10:43:14.713Z,92.20
2019-05-15T10:45:49.752Z,92.50
2019-05-15T10:48:19.142Z,92.40
2019-05-15T10:50:50.379Z,91.60
2019-05-15T10:53:21.472Z,91.80
2019-05-15T10:55:52.437Z,94.00
2019-05-15T10:58:23.550Z,94.00
2019-05-15T11:00:55.533Z,91.80
2019-05-15T11:03:26.567Z,93.00
2019-05-15T11:05:57.960Z,92.90
2019-05-15T11:08:29.295Z,93.60
2019-05-15T11:11:00.339Z,93.20
2019-05-15T11:13:31.531Z,91.00
2019-05-15T11:16:02.488Z,89.20
2019-05-15T11:18:33.944Z,89.40
2019-05-15T11:21:05.292Z,91.00
2019-05-15T11:23:39.437Z,89.40
2019-05-15T11:26:10.320Z,90.40
2019-05-15T11:28:41.995Z,89.20
2019-05-15T11:31:13.318Z,90.00
2019-05-15T11:33:44.691Z,90.70
2019-05-15T11:36:18.351Z,89.30
2019-05-15T11:38:48.732Z,90.10
2019-05-15T11:41:19.862Z,90.30
2019-05-15T11:43:51.057Z,85.90
2019-05-15T11:46:25.512Z,88.80
2019-05-15T11:48:55.358Z,89.90
2019-05-15T11:51:26.347Z,90.20
2019-05-15T11:53:59.278Z,86.80
2019-05-15T11:56:30.333Z,85.00
2019-05-15T11:59:01.356Z,90.10
2019-05-15T12:01:33.362Z,86.60
2019-05-15T12:04:04.884Z,82.20
2019-05-15T12:06:38.409Z,84.50
2019-05-15T12:09:09.496Z,79.60
2019-05-15T12:11:41.238Z,83.20
2019-05-15T12:14:12.530Z,83.70
2019-05-15T12:17:01.113Z,82.90
2019-05-15T12:19:17.503Z,83.50
2019-05-15T12:21:49.136Z,81.40
2019-05-15T12:24:20.341Z,81.70
2019-05-15T12:26:52.382Z,75.20
2019-05-15T12:29:23.376Z,79.80
2019-05-15T12:31:54.385Z,76.30
2019-05-15T12:34:25.741Z,72.30
2019-05-15T12:36:58.178Z,78.10
2019-05-15T12:39:30.582Z,74.00
2019-05-15T12:59:53.194Z,55.80
2019-05-15T13:02:24.309Z,57.20
2019-05-15T13:04:55.390Z,57.50
2019-05-15T13:07:28.424Z,56.60
2019-05-15T13:09:59.366Z,56.40
2019-05-15T13:12:30.375Z,59.10
2019-05-15T13:15:01.701Z,59.60
2019-05-15T13:17:34.081Z,58.30
2019-05-15T13:20:05.333Z,56.30
2019-05-15T13:22:39.051Z,57.60
2019-05-15T13:25:11.179Z,58.60
2019-05-15T13:27:42.528Z,62.20
2019-05-15T13:30:14.971Z,55.40
2019-05-15T13:32:46.012Z,56.50
2019-05-15T13:35:18.383Z,57.60
2019-05-15T13:37:49.907Z,57.90
2019-05-15T13:40:34.236Z,57.30
2019-05-15T13:42:53.844Z,59.40
2019-05-15T13:45:24.921Z,55.00
2019-05-15T13:47:56.017Z,54.60
2019-05-15T13:50:28.479Z,55.40
2019-05-15T13:52:59.700Z,55.60
2019-05-15T13:55:36.219Z,54.90
2019-05-15T13:58:03.390Z,58.60
2019-05-15T14:00:34.434Z,56.20
2019-05-15T14:03:05.559Z,55.00
2019-05-15T14:05:38.305Z,53.60
2019-05-15T14:08:09.786Z,52.00
2019-05-15T14:10:40.924Z,53.70
2019-05-15T14:13:11.992Z,54.00
2019-05-15T14:15:42.961Z,53.40
2019-05-15T14:18:15.053Z,53.50
2019-05-15T14:20:46.080Z,55.70
2019-05-15T14:23:18.561Z,56.90
2019-05-15T14:25:49.711Z,56.50
2019-05-15T14:28:20.745Z,55.10
2019-05-15T14:30:51.852Z,56.00
2019-05-15T14:33:23.218Z,54.40
2019-05-15T14:35:54.186Z,53.70
2019-05-15T14:38:25.520Z,54.80
2019-05-15T14:40:58.872Z,54.90
2019-05-15T14:43:29.590Z,54.30
2019-05-15T14:46:01.760Z,54.80
2019-05-15T14:48:33.177Z,54.10
2019-05-15T14:51:04.281Z,53.50
2019-05-15T14:53:35.274Z,55.60
2019-05-15T14:56:08.453Z,54.40
2019-05-15T14:58:39.289Z,53.90
2019-05-15T15:01:12.366Z,53.00
2019-05-15T15:03:54.813Z,54.70
2019-05-15T15:06:26.462Z,54.30
2019-05-15T15:08:59.284Z,54.50
2019-05-15T15:11:30.339Z,55.80
2019-05-15T15:14:01.701Z,55.20
2019-05-15T15:16:33.133Z,54.70
2019-05-15T15:19:04.235Z,56.00
2019-05-15T15:21:38.411Z,55.20
2019-05-15T15:24:09.063Z,55.20
2019-05-15T15:26:40.509Z,56.20
2019-05-15T15:29:11.559Z,57.10
2019-05-15T15:31:42.652Z,56.50
2019-05-15T15:34:13.844Z,55.70
2019-05-15T15:36:44.888Z,55.50
2019-05-15T15:39:17.947Z,57.50
2019-05-15T15:41:49.005Z,55.50
2019-05-15T15:44:20.130Z,56.70
2019-05-15T15:46:51.549Z,55.40
2019-05-15T15:49:22.553Z,56.30
2019-05-15T15:51:53.594Z,54.60
2019-05-15T15:54:24.713Z,57.30
2019-05-15T15:56:55.712Z,55.90
2019-05-15T15:59:38.665Z,55.80
2019-05-15T16:02:11.047Z,56.50
2019-05-15T16:04:42.048Z,58.60
2019-05-15T16:07:13.674Z,57.00
2019-05-15T16:09:44.672Z,56.70
2019-05-15T16:12:18.432Z,55.00
2019-05-15T16:14:48.969Z,56.00
2019-05-15T16:17:20.059Z,55.60
2019-05-15T16:19:51.117Z,55.60
2019-05-15T16:22:22.526Z,56.80
2019-05-15T16:24:54.675Z,56.10
2019-05-15T16:27:25.677Z,56.60
2019-05-15T16:29:58.503Z,57.30
2019-05-15T16:32:30.178Z,55.30
2019-05-15T16:35:01.249Z,54.80
2019-05-15T16:37:35.340Z,56.20
2019-05-15T16:40:07.167Z,55.30
2019-05-15T16:42:38.791Z,55.60
2019-05-15T16:45:10.249Z,57.40
2019-05-15T16:47:41.657Z,54.80
2019-05-15T16:50:12.923Z,55.80
2019-05-15T16:52:43.963Z,55.50
2019-05-15T16:55:16.344Z,56.10
2019-05-15T16:57:47.989Z,55.60
2019-05-15T17:00:20.499Z,56.00
2019-05-15T17:03:08.292Z,56.40
2019-05-15T17:05:24.667Z,55.40
2019-05-15T17:07:58.179Z,55.80
2019-05-15T17:10:28.715Z,54.90
2019-05-15T17:12:59.743Z,55.60
2019-05-15T17:15:31.313Z,55.30
2019-05-15T17:18:02.656Z,56.30
2019-05-15T17:20:33.779Z,57.30
2019-05-15T17:23:05.049Z,57.30
2019-05-15T17:25:38.180Z,55.30
2019-05-15T17:28:09.267Z,55.40
2019-05-15T17:30:41.743Z,55.90
2019-05-15T17:33:12.809Z,56.30
2019-05-15T17:35:43.959Z,55.40
2019-05-15T17:38:18.055Z,55.20
2019-05-15T17:40:48.907Z,55.80
2019-05-15T17:43:20.190Z,56.50
2019-05-15T17:45:51.185Z,56.00
2019-05-15T17:48:22.253Z,56.40
2019-05-15T17:50:53.748Z,57.50
2019-05-15T17:53:24.770Z,56.70
2019-05-15T17:55:58.618Z,56.60
2019-05-15T17:58:29.322Z,57.40
2019-05-15T18:01:00.771Z,57.00
2019-05-15T18:03:31.840Z,58.40
2019-05-15T18:06:02.947Z,58.00
2019-05-15T18:08:34.252Z,58.50
2019-05-15T18:11:07.950Z,58.10
2019-05-15T18:13:38.652Z,58.30
2019-05-15T18:16:13.425Z,59.60
2019-05-15T18:18:42.859Z,60.20
2019-05-15T18:21:13.898Z,58.80
2019-05-15T18:23:45.556Z,59.60
2019-05-15T18:26:18.298Z,59.60
2019-05-15T18:28:49.820Z,59.20
2019-05-15T18:31:21.356Z,59.90
2019-05-15T18:33:53.637Z,60.30
2019-05-15T18:36:39.220Z,62.30
2019-05-15T18:39:10.562Z,60.60
2019-05-15T18:41:41.794Z,62.00
2019-05-15T18:44:13.249Z,63.10
2019-05-15T18:46:44.828Z,62.60
2019-05-15T18:49:17.985Z,63.30
2019-05-15T18:51:48.610Z,62.90
2019-05-15T18:54:19.549Z,62.80
2019-05-15T18:56:51.022Z,63.50
2019-05-15T18:59:22.098Z,64.20
2019-05-15T19:01:53.192Z,66.20
2019-05-15T19:04:24.218Z,65.00
2019-05-15T19:06:58.173Z,65.20
2019-05-15T19:09:28.505Z,64.50
2019-05-15T19:11:59.927Z,66.00
2019-05-15T19:14:31.319Z,66.00
2019-05-15T19:17:02.515Z,65.30
2019-05-15T19:19:33.724Z,66.50
2019-05-15T19:22:04.803Z,66.70
2019-05-15T19:24:39.912Z,68.70
2019-05-15T19:27:08.992Z,70.20
2019-05-15T19:29:40.019Z,69.60
2019-05-15T19:32:11.538Z,70.10
2019-05-15T19:34:42.633Z,69.00
2019-05-15T19:37:13.900Z,69.90
2019-05-15T19:39:45.323Z,69.70
2019-05-15T19:42:18.125Z,70.10
2019-05-15T19:44:51.467Z,71.70
2019-05-15T19:47:24.692Z,70.90
2019-05-15T19:49:57.678Z,71.20
2019-05-15T19:52:28.861Z,72.40
2019-05-15T19:55:00.241Z,73.20
2019-05-15T19:57:31.449Z,74.00
2019-05-15T20:00:02.678Z,76.40
2019-05-15T20:02:34.654Z,78.80
2019-05-15T20:05:06.173Z,78.90
2019-05-15T20:07:39.086Z,77.10
2019-05-15T20:10:11.515Z,80.40
2019-05-15T20:12:43.346Z,80.00
2019-05-15T20:15:14.954Z,77.70
2019-05-15T20:17:47.854Z,78.90
2019-05-15T20:20:19.133Z,80.50
2019-05-15T20:22:50.937Z,80.10
2019-05-15T20:25:21.933Z,81.70
2019-05-15T20:27:53.311Z,80.20
2019-05-15T20:30:24.466Z,82.20
2019-05-15T20:32:55.642Z,80.50
2019-05-15T20:35:28.195Z,79.70
2019-05-15T20:37:59.834Z,79.90
2019-05-15T20:40:31.330Z,80.50
2019-05-15T20:43:02.804Z,80.90
2019-05-15T20:45:34.355Z,80.90
2019-05-15T20:48:05.548Z,81.00
2019-05-15T20:50:38.662Z,80.90
2019-05-15T20:53:10.163Z,81.10
2019-05-15T20:55:42.194Z,81.50
2019-05-15T20:58:13.308Z,82.30
2019-05-15T21:00:44.467Z,82.30
2019-05-15T21:03:17.898Z,82.50
2019-05-15T21:05:49.324Z,83.60
2019-05-15T21:08:20.461Z,83.50
2019-05-15T21:10:52.028Z,83.80
2019-05-15T21:13:33.140Z,83.90
2019-05-15T21:16:04.431Z,86.40
2019-05-15T21:18:37.624Z,87.80
2019-05-15T21:21:10.569Z,88.40
2019-05-15T21:23:41.327Z,88.10
2019-05-15T21:26:12.340Z,88.70
2019-05-15T21:28:43.389Z,91.00
2019-05-15T21:31:15.356Z,91.10
2019-05-15T21:33:48.177Z,88.60
2019-05-15T21:36:19.967Z,91.30
2019-05-15T21:38:51.059Z,88.80
2019-05-15T21:41:22.594Z,91.00
2019-05-15T21:43:53.644Z,90.00
2019-05-15T21:46:25.008Z,90.30
2019-05-15T21:48:57.708Z,91.10
2019-05-15T21:51:29.133Z,90.00
2019-05-15T21:54:01.263Z,90.90
2019-05-15T21:56:32.591Z,90.30
2019-05-15T21:59:04.536Z,90.50
2019-05-15T22:01:39.463Z,90.60
2019-05-15T22:04:09.252Z,91.00
2019-05-15T22:06:40.659Z,91.80
2019-05-15T22:09:14.312Z,92.00
2019-05-15T22:11:45.992Z,93.40
2019-05-15T22:14:18.225Z,93.60
2019-05-15T22:16:49.965Z,93.20
2019-05-15T22:19:21.423Z,94.50
2019-05-15T22:21:54.022Z,93.60
2019-05-15T22:24:25.198Z,93.10
2019-05-15T22:26:58.684Z,92.60
2019-05-15T22:29:29.849Z,93.90
2019-05-15T22:32:00.840Z,93.00
2019-05-15T22:34:32.191Z,93.10
2019-05-15T22:37:03.234Z,93.10
2019-05-15T22:39:34.573Z,93.00
2019-05-15T22:42:05.792Z,93.20
2019-05-15T22:44:38.470Z,93.30
2019-05-15T22:47:09.932Z,93.50
2019-05-15T22:49:40.950Z,93.80
2019-05-15T22:52:12.246Z,95.40
2019-05-15T22:54:43.938Z,96.00
2019-05-15T22:57:15.014Z,95.60
2019-05-15T22:59:48.406Z,95.00
2019-05-15T23:02:19.606Z,95.00
2019-05-15T23:04:50.978Z,95.60
2019-05-15T23:07:22.014Z,96.00
2019-05-15T23:09:53.050Z,96.60
2019-05-15T23:12:24.431Z,97.20
2019-05-15T23:14:55.382Z,97.00
2019-05-15T23:17:27.715Z,96.50
2019-05-15T23:19:59.252Z,97.20
2019-05-15T23:22:31.021Z,97.10
2019-05-15T23:25:02.088Z,96.90
2019-05-15T23:27:33.226Z,97.00
2019-05-15T23:30:04.804Z,96.40
2019-05-15T23:32:38.532Z,96.40
2019-05-15T23:35:08.571Z,96.60
2019-05-15T23:37:39.609Z,96.90
2019-05-15T23:40:10.731Z,98.00
2019-05-15T23:42:42.106Z,98.40
2019-05-15T23:45:13.257Z,98.70
2019-05-15T23:47:44.563Z,98.70
2019-05-15T23:50:15.649Z,97.90
2019-05-15T23:52:48.622Z,98.20
2019-05-15T23:55:19.315Z,98.30
2019-05-15T23:57:52.239Z,99.10
